Time;durP1;ratioP1;P1;durP2;ratioP2;P2;SDS_P1;SDS_P2;PMS_P1;PMS_P2;Temp;Humidity;BMP_temperature;BMP_pressure;BME280_temperature;BME280_humidity;BME280_pressure;Samples;Min_cycle;Max_cycle;Signal;HPM_P1;HPM_P2
2022/01/19 00:02:36;;;;;;;19.77;10.38;;;;;;;5.52;98.30;102164.13;8313797;28;20034;-64
2022/01/19 00:06:37;;;;;;;15.25;10.02;;;;;;;5.42;97.96;102160.97;8299621;28;20523;-64
2022/01/19 00:10:37;;;;;;;18.63;10.93;;;;;;;5.37;99.08;102159.44;8320528;28;20490;-64
2022/01/19 00:14:38;;;;;;;16.27;9.68;;;;;;;5.34;99.11;102156.88;8308707;28;20132;-64
2022/01/19 00:18:38;;;;;;;19.13;10.85;;;;;;;5.19;99.57;102153.03;8293027;28;20405;-64
2022/01/19 00:22:39;;;;;;;18.85;11.00;;;;;;;5.22;99.56;102142.19;8324905;28;20029;-64
2022/01/19 00:26:40;;;;;;;19.58;10.82;;;;;;;5.13;99.81;102115.81;8325458;28;20044;-64
2022/01/19 00:30:41;;;;;;;18.67;11.70;;;;;;;5.18;100.00;102086.97;8326713;28;20084;-64
2022/01/19 00:34:42;;;;;;;19.15;11.50;;;;;;;5.21;100.00;102085.97;8324917;28;20049;-64
2022/01/19 00:38:42;;;;;;;21.05;11.45;;;;;;;5.24;99.83;102101.91;8325064;28;20048;-64
2022/01/19 00:42:43;;;;;;;15.90;10.82;;;;;;;5.18;99.61;102107.53;8324830;28;20040;-64
2022/01/19 00:46:44;;;;;;;20.88;11.45;;;;;;;4.94;100.00;102114.00;8325320;28;20038;-64
2022/01/19 00:50:44;;;;;;;18.38;11.27;;;;;;;4.72;100.00;102123.84;8324889;28;20044;-64
2022/01/19 00:54:45;;;;;;;20.58;11.35;;;;;;;4.55;100.00;102153.16;8309380;28;20042;-64
2022/01/19 00:58:45;;;;;;;22.75;13.65;;;;;;;4.36;100.00;102152.16;8304672;28;20128;-63
2022/01/19 01:02:46;;;;;;;19.88;12.38;;;;;;;4.39;100.00;102163.59;8309980;28;20435;-64
2022/01/19 01:06:46;;;;;;;24.33;13.60;;;;;;;4.51;100.00;102136.34;8292109;28;20405;-64
2022/01/19 01:10:48;;;;;;;24.70;14.95;;;;;;;4.68;100.00;102138.31;8302598;28;20060;-64
2022/01/19 01:19:12;;;;;;;34.05;17.30;;;;;;;4.71;100.00;102139.09;8295531;28;20506;-64
2022/01/19 01:23:12;;;;;;;36.33;16.90;;;;;;;4.65;100.00;102138.44;8300660;28;20093;-64
2022/01/19 01:27:13;;;;;;;28.67;17.35;;;;;;;4.82;100.00;102134.13;8290482;28;20498;-64
2022/01/19 01:31:13;;;;;;;31.80;17.58;;;;;;;4.86;100.00;102121.47;8315006;28;20034;-63
2022/01/19 01:35:14;;;;;;;35.72;19.38;;;;;;;4.91;100.00;102114.13;8324130;28;20054;-64
2022/01/19 01:39:14;;;;;;;31.50;17.88;;;;;;;4.85;100.00;102115.25;8321104;28;20087;-63
2022/01/19 01:43:15;;;;;;;30.70;16.00;;;;;;;4.86;100.00;102094.69;8328846;28;20061;-63
2022/01/19 01:47:17;;;;;;;34.47;18.13;;;;;;;4.85;100.00;102109.88;8330437;28;20064;-64
2022/01/19 01:55:38;;;;;;;30.05;16.33;;;;;;;4.57;100.00;102119.16;8329227;28;20180;-64
2022/01/19 01:59:38;;;;;;;30.05;17.20;;;;;;;4.49;100.00;102118.59;8329980;28;20033;-63
2022/01/19 02:03:41;;;;;;;32.10;15.75;;;;;;;4.36;100.00;102098.63;8328358;28;20033;-64
2022/01/19 02:07:49;;;;;;;28.67;16.25;;;;;;;4.26;100.00;102097.22;8316474;28;20043;-63
2022/01/19 02:21:44;;;;;;;37.00;17.73;;;;;;;4.25;100.00;102058.91;8311180;28;20034;-64
2022/01/19 02:24:51;;;;;;;28.70;16.38;;;;;;;4.34;100.00;102042.47;8328464;28;20045;-63
2022/01/19 02:29:05;;;;;;;28.35;15.73;;;;;;;4.29;100.00;102027.50;8328901;28;20029;-63
2022/01/19 02:41:46;;;;;;;26.75;14.52;;;;;;;4.49;100.00;101984.72;8327944;28;20059;-64
2022/01/19 02:50:08;;;;;;;24.50;14.40;;;;;;;4.50;100.00;101973.06;8315245;28;20037;-64
2022/01/19 02:54:19;;;;;;;25.30;15.68;;;;;;;4.46;100.00;101958.06;8327712;28;20512;-63
2022/01/19 02:58:22;;;;;;;25.42;15.15;;;;;;;4.47;100.00;101946.41;8326754;28;20042;-63
2022/01/19 03:11:04;;;;;;;25.20;15.13;;;;;;;4.21;100.00;101935.97;8327568;28;20494;-63
2022/01/19 03:15:07;;;;;;;25.38;14.70;;;;;;;4.22;100.00;101933.22;8317815;28;20483;-63
2022/01/19 03:19:09;;;;;;;28.25;14.65;;;;;;;4.27;100.00;101941.06;8320262;28;20117;-64
2022/01/19 03:23:18;;;;;;;26.02;15.82;;;;;;;4.14;100.00;101945.22;8323515;28;20053;-64
2022/01/19 03:27:19;;;;;;;22.60;14.82;;;;;;;3.94;100.00;101951.41;8320508;28;20037;-64
2022/01/19 03:31:19;;;;;;;25.63;15.70;;;;;;;3.85;100.00;101949.94;8326766;28;20029;-63
2022/01/19 03:35:20;;;;;;;23.98;14.63;;;;;;;3.81;100.00;101945.66;8326533;28;20069;-63
2022/01/19 03:39:20;;;;;;;27.17;15.40;;;;;;;4.17;100.00;101942.41;8326727;28;20068;-64
2022/01/19 03:43:20;;;;;;;25.02;14.55;;;;;;;4.32;100.00;101925.66;8330833;28;20033;-64
2022/01/19 03:47:21;;;;;;;25.77;13.93;;;;;;;4.43;100.00;101923.41;8359508;28;20087;-64
2022/01/19 03:51:22;;;;;;;23.95;14.27;;;;;;;4.44;100.00;101906.38;8336283;28;20497;-64
2022/01/19 03:55:23;;;;;;;24.20;14.65;;;;;;;4.50;100.00;101892.72;8326201;28;20064;-64
2022/01/19 03:59:24;;;;;;;22.08;14.40;;;;;;;4.44;100.00;101893.00;8326299;28;20040;-63
2022/01/19 04:03:39;;;;;;;23.92;14.20;;;;;;;4.62;100.00;101881.47;8325416;28;20041;-64
2022/01/19 04:07:40;;;;;;;19.17;13.45;;;;;;;4.64;100.00;101879.59;8325973;28;20496;-64
2022/01/19 04:11:40;;;;;;;24.00;13.32;;;;;;;4.86;100.00;101880.34;8325608;28;20393;-64
2022/01/19 04:15:40;;;;;;;21.13;12.35;;;;;;;5.02;100.00;101876.00;8325236;28;20037;-64
2022/01/19 04:19:45;;;;;;;20.13;12.40;;;;;;;5.07;100.00;101882.00;8325794;28;20032;-64
2022/01/19 04:23:45;;;;;;;;;;;;;;;5.02;100.00;101900.13;8325813;28;20030;-64
2022/01/19 04:27:46;;;;;;;22.95;13.80;;;;;;;4.94;100.00;101886.22;8325946;28;19913;-64
2022/01/19 04:31:46;;;;;;;21.35;14.07;;;;;;;5.01;100.00;101879.63;8312017;28;20470;-64
2022/01/19 04:35:49;;;;;;;22.67;14.15;;;;;;;4.98;100.00;101869.94;8304468;28;20096;-64
2022/01/19 04:44:31;;;;;;;24.23;13.75;;;;;;;5.02;100.00;101870.63;8311003;28;20080;-64
2022/01/19 04:49:14;;;;;;;22.13;11.73;;;;;;;5.10;100.00;101868.47;8306150;28;20037;-64
2022/01/19 05:01:56;;;;;;;17.77;11.77;;;;;;;5.17;100.00;101859.19;8311613;28;20120;-64
2022/01/19 05:06:00;;;;;;;17.95;11.55;;;;;;;5.15;100.00;101853.03;8305259;28;20033;-63
2022/01/19 05:13:24;;;;;;;17.98;11.50;;;;;;;5.12;100.00;101847.84;8311601;28;20076;-63
2022/01/19 05:14:21;;;;;;;18.13;11.82;;;;;;;5.16;100.00;101846.72;8315675;28;20058;-64
2022/01/19 05:18:22;;;;;;;16.40;11.65;;;;;;;5.15;100.00;101836.94;8317022;28;20526;-64
2022/01/19 05:22:22;;;;;;;16.30;10.23;;;;;;;5.20;100.00;101829.56;8344452;28;20729;-64
2022/01/19 05:26:23;;;;;;;13.93;9.80;;;;;;;5.24;100.00;101817.72;8322926;28;20064;-64
2022/01/19 05:30:23;;;;;;;13.10;9.18;;;;;;;5.31;99.60;101829.91;8324889;28;20041;-64
2022/01/19 05:34:24;;;;;;;11.95;9.07;;;;;;;5.32;99.80;101812.88;8320798;28;20144;-63
2022/01/19 05:38:25;;;;;;;13.52;10.05;;;;;;;5.27;100.00;101806.84;8315450;28;20375;-64
2022/01/19 05:42:25;;;;;;;12.35;8.90;;;;;;;5.33;99.48;101801.19;8296158;28;20041;-64
2022/01/19 05:46:26;;;;;;;14.85;9.18;;;;;;;5.36;98.75;101795.66;8314308;28;20127;-63
2022/01/19 05:50:27;;;;;;;12.48;9.25;;;;;;;5.32;99.90;101783.38;8325593;28;20038;-64
2022/01/19 05:54:27;;;;;;;12.13;9.70;;;;;;;5.34;99.23;101786.84;8318434;28;20034;-64
2022/01/19 05:58:27;;;;;;;13.27;9.55;;;;;;;5.32;99.96;101791.41;8316195;28;20524;-64
2022/01/19 06:02:28;;;;;;;12.63;9.18;;;;;;;5.27;100.00;101790.75;8323584;28;20037;-63
2022/01/19 06:06:31;;;;;;;16.73;11.88;;;;;;;5.29;99.70;101780.84;8306348;28;20040;-63
2022/01/19 06:10:47;;;;;;;17.90;12.18;;;;;;;5.35;100.00;101785.91;8325659;28;20113;-64
2022/01/19 06:14:48;;;;;;;15.32;11.73;;;;;;;5.31;100.00;101781.66;8299828;28;20046;-64
2022/01/19 06:18:48;;;;;;;15.98;11.07;;;;;;;5.35;100.00;101783.22;8305424;28;20052;-64
2022/01/19 06:22:49;;;;;;;15.35;10.93;;;;;;;5.31;100.00;101769.09;8310800;28;20065;-64
2022/01/19 06:26:49;;;;;;;16.08;11.57;;;;;;;5.31;100.00;101760.19;8306876;28;20120;-64
2022/01/19 06:30:49;;;;;;;16.25;10.82;;;;;;;5.27;100.00;101758.59;8313652;28;20033;-64
2022/01/19 06:34:50;;;;;;;15.43;10.57;;;;;;;5.46;100.00;101749.53;8315385;28;20542;-62
2022/01/19 06:38:50;;;;;;;17.92;12.20;;;;;;;5.24;100.00;101745.34;8297426;28;20049;-63
2022/01/19 06:42:52;;;;;;;22.90;12.63;;;;;;;5.20;100.00;101738.41;8287036;28;20041;-63
2022/01/19 06:46:52;;;;;;;19.15;12.25;;;;;;;5.10;100.00;101723.75;8294464;28;20045;-63
2022/01/19 06:50:53;;;;;;;19.17;12.15;;;;;;;5.08;100.00;101721.13;8322256;28;20511;-63
2022/01/19 06:54:53;;;;;;;20.92;12.73;;;;;;;5.09;100.00;101714.81;8322039;28;20038;-63
2022/01/19 06:58:54;;;;;;;26.33;12.75;;;;;;;5.07;100.00;101707.81;8346029;28;20196;-63
2022/01/19 07:02:55;;;;;;;20.65;13.13;;;;;;;5.11;100.00;101712.06;8356260;28;20477;-63
2022/01/19 07:06:55;;;;;;;24.88;13.38;;;;;;;5.13;100.00;101715.53;8355535;28;20390;-63
2022/01/19 07:10:56;;;;;;;17.48;12.30;;;;;;;5.16;100.00;101712.72;8357009;28;20155;-63
2022/01/19 07:14:56;;;;;;;17.85;11.60;;;;;;;5.17;100.00;101704.59;8323550;28;20099;-63
2022/01/19 07:18:57;;;;;;;21.05;12.15;;;;;;;5.18;100.00;101694.72;8323766;28;20555;-63
2022/01/19 07:23:00;;;;;;;21.80;12.45;;;;;;;5.16;100.00;101696.63;8322890;28;20563;-63
2022/01/19 07:27:00;;;;;;;25.08;12.98;;;;;;;5.05;100.00;101698.97;8323607;28;20044;-63
2022/01/19 07:31:01;;;;;;;24.80;13.75;;;;;;;4.96;100.00;101705.66;8323579;28;20120;-63
2022/01/19 07:35:03;;;;;;;21.75;12.15;;;;;;;4.98;100.00;101697.53;8321110;28;20274;-63
2022/01/19 07:39:04;;;;;;;23.20;14.25;;;;;;;4.92;100.00;101697.84;8322665;28;20037;-63
2022/01/19 07:43:07;;;;;;;24.05;14.02;;;;;;;4.94;100.00;101695.97;8322617;28;20045;-63
2022/01/19 07:47:07;;;;;;;27.70;14.43;;;;;;;4.87;100.00;101694.53;8320945;28;20050;-63
2022/01/19 07:51:08;;;;;;;25.17;13.75;;;;;;;4.93;100.00;101694.22;8322367;28;20042;-63
2022/01/19 07:55:09;;;;;;;31.13;14.80;;;;;;;4.94;100.00;101686.09;8322118;28;20061;-63
2022/01/19 07:59:09;;;;;;;28.13;13.48;;;;;;;4.87;100.00;101686.47;8322174;28;20064;-63
2022/01/19 08:03:10;;;;;;;23.70;13.30;;;;;;;4.91;100.00;101682.72;8322219;28;20448;-63
2022/01/19 08:07:11;;;;;;;24.42;13.88;;;;;;;4.94;100.00;101674.53;8322504;28;20045;-63
2022/01/19 08:11:12;;;;;;;73.53;17.58;;;;;;;5.05;100.00;101681.09;8320811;28;20040;-63
2022/01/19 08:15:12;;;;;;;40.97;14.82;;;;;;;5.16;100.00;101680.53;8321801;28;20037;-63
2022/01/19 08:19:13;;;;;;;20.65;12.75;;;;;;;5.22;98.62;101675.72;8321832;28;20575;-63
2022/01/19 08:23:13;;;;;;;22.00;13.68;;;;;;;5.33;98.74;101675.16;8321910;28;20043;-63
2022/01/19 08:27:14;;;;;;;20.13;13.23;;;;;;;5.38;97.21;101670.44;8322169;28;20683;-63
2022/01/19 08:31:15;;;;;;;21.15;13.55;;;;;;;5.43;95.92;101666.56;8321841;28;20033;-63
2022/01/19 08:35:15;;;;;;;16.45;11.38;;;;;;;5.50;94.54;101669.81;8337728;28;20041;-63
2022/01/19 08:39:16;;;;;;;18.13;11.13;;;;;;;5.53;94.24;101669.66;8325098;28;20041;-63
2022/01/19 08:43:16;;;;;;;21.52;12.80;;;;;;;5.60;92.53;101668.38;8321122;28;20040;-63
2022/01/19 08:47:16;;;;;;;21.58;12.93;;;;;;;5.61;93.09;101662.03;8321549;28;20049;-63
2022/01/19 08:51:17;;;;;;;29.42;13.98;;;;;;;5.61;93.59;101667.41;8325930;28;20041;-63
2022/01/19 08:55:17;;;;;;;20.58;13.20;;;;;;;5.60;93.99;101660.31;8327890;28;20448;-63
2022/01/19 08:59:18;;;;;;;18.52;12.38;;;;;;;5.62;94.01;101658.44;8328239;28;20049;-63
2022/01/19 09:03:19;;;;;;;15.10;10.70;;;;;;;5.72;91.16;101660.56;8326686;28;20562;-63
2022/01/19 09:07:20;;;;;;;17.92;12.10;;;;;;;5.73;90.88;101664.06;8328043;28;20111;-63
2022/01/19 09:11:20;;;;;;;18.50;13.40;;;;;;;5.73;92.70;101667.63;8326539;28;20513;-63
2022/01/19 09:15:22;;;;;;;18.15;12.57;;;;;;;5.75;92.54;101659.50;8327004;28;20357;-63
2022/01/19 09:19:23;;;;;;;19.13;13.60;;;;;;;5.73;93.37;101653.34;8327481;28;20417;-63
2022/01/19 09:23:24;;;;;;;19.50;13.02;;;;;;;5.75;93.02;101649.66;8326782;28;20038;-63
2022/01/19 09:27:24;;;;;;;19.70;13.02;;;;;;;5.77;93.25;101641.53;8327584;28;20046;-63
2022/01/19 09:31:25;;;;;;;19.02;13.50;;;;;;;5.77;93.00;101649.56;8327088;28;20099;-63
2022/01/19 09:35:26;;;;;;;18.00;12.32;;;;;;;5.77;94.09;101641.53;8325325;28;20095;-63
2022/01/19 09:39:27;;;;;;;22.13;14.25;;;;;;;5.75;93.90;101632.69;8326612;28;20425;-63
2022/01/19 09:43:27;;;;;;;23.30;15.00;;;;;;;5.74;93.99;101625.59;8326657;28;20045;-63
2022/01/19 09:47:28;;;;;;;22.90;14.38;;;;;;;5.72;94.26;101619.44;8326732;28;20079;-63
2022/01/19 09:51:29;;;;;;;21.83;15.10;;;;;;;5.73;95.44;101616.66;8326120;28;20037;-63
2022/01/19 09:55:29;;;;;;;22.52;14.65;;;;;;;5.75;95.43;101616.59;8326673;28;20679;-63
2022/01/19 09:59:30;;;;;;;23.73;14.82;;;;;;;5.75;95.01;101595.13;8325255;28;20497;-63
2022/01/19 10:03:33;;;;;;;22.35;14.95;;;;;;;5.80;95.35;101593.06;8325117;28;20141;-63
2022/01/19 10:07:34;;;;;;;23.02;14.07;;;;;;;5.82;94.01;101585.81;8325059;28;20040;-64
2022/01/19 10:17:02;;;;;;;24.90;15.55;;;;;;;5.85;93.82;101581.16;8341078;28;20852;-63
2022/01/19 10:20:21;;;;;;;21.90;14.40;;;;;;;5.91;93.24;101574.56;8350278;28;20041;-63
2022/01/19 10:24:48;;;;;;;23.77;14.82;;;;;;;5.94;93.08;101574.41;8349977;28;20171;-63
2022/01/19 10:33:16;;;;;;;21.20;14.40;;;;;;;6.03;91.98;101568.50;8412071;27;20435;-63
2022/01/19 10:37:26;;;;;;;23.83;14.65;;;;;;;6.07;90.49;101559.31;8399868;27;20049;-63
2022/01/19 10:41:26;;;;;;;23.38;14.85;;;;;;;6.10;89.51;101548.41;8400010;27;20524;-63
2022/01/19 10:45:32;;;;;;;23.80;14.30;;;;;;;6.13;89.53;101537.50;8400066;27;20467;-63
2022/01/19 10:49:47;;;;;;;23.35;14.77;;;;;;;6.18;87.88;101535.44;8399291;27;20493;-63
2022/01/19 10:54:07;;;;;;;22.20;14.27;;;;;;;6.20;88.11;101512.06;8399382;27;20032;-63
2022/01/19 10:58:14;;;;;;;20.90;13.80;;;;;;;6.25;87.97;101509.09;8394945;27;20050;-63
2022/01/19 11:02:15;;;;;;;22.92;14.20;;;;;;;6.28;87.25;101495.50;8398763;27;20206;-63
2022/01/19 11:06:16;;;;;;;21.92;13.50;;;;;;;6.34;86.93;101477.19;8399069;27;20528;-63
2022/01/19 11:10:18;;;;;;;22.35;13.35;;;;;;;6.43;85.52;101476.66;8396243;27;20419;-63
2022/01/19 11:14:19;;;;;;;25.58;13.55;;;;;;;6.48;85.13;101479.94;8378069;28;20120;-63
2022/01/19 11:18:21;;;;;;;19.98;12.93;;;;;;;6.50;85.54;101471.78;8382236;28;20024;-63
2022/01/19 11:22:34;;;;;;;21.30;14.48;;;;;;;6.47;85.83;101464.78;8412597;27;20449;-63
2022/01/19 11:26:36;;;;;;;22.45;14.13;;;;;;;6.47;86.88;101463.91;8415707;27;20032;-63
2022/01/19 11:30:46;;;;;;;27.15;13.88;;;;;;;6.48;86.24;101462.94;8397141;27;20086;-63
2022/01/19 11:34:51;;;;;;;20.58;14.15;;;;;;;6.46;86.69;101449.59;8380974;28;20112;-63
2022/01/19 11:38:53;;;;;;;;;;;;;;;6.46;87.13;101446.91;8356031;28;20080;-63
2022/01/19 11:43:17;;;;;;;21.38;13.68;;;;;;;6.43;87.07;101443.56;8332788;28;19925;-63
2022/01/19 11:47:23;;;;;;;23.02;14.35;;;;;;;6.44;85.95;101438.13;8340924;28;20076;-63
2022/01/19 11:51:28;;;;;;;24.98;14.18;;;;;;;6.45;85.85;101426.41;8346132;28;20045;-63
2022/01/19 11:55:30;;;;;;;22.13;13.80;;;;;;;6.41;85.89;101408.75;8332950;28;20033;-63
2022/01/19 12:03:50;;;;;;;23.65;14.18;;;;;;;6.39;86.24;101399.91;8349602;27;20392;-63
2022/01/19 12:12:16;;;;;;;32.60;16.90;;;;;;;6.38;86.83;101391.94;8386781;27;20353;-63
2022/01/19 12:16:51;;;;;;;28.35;16.63;;;;;;;6.37;86.33;101380.34;8316397;28;20064;-62
2022/01/19 12:20:52;;;;;;;30.35;17.05;;;;;;;6.36;86.35;101373.25;8330499;28;20115;-62
2022/01/19 12:25:03;;;;;;;29.88;15.88;;;;;;;6.37;86.47;101358.84;8302456;28;20045;-62
2022/01/19 12:29:03;;;;;;;26.55;16.13;;;;;;;6.38;86.81;101365.97;8314063;28;20038;-62
2022/01/19 12:33:04;;;;;;;27.55;15.75;;;;;;;6.38;85.88;101360.59;8291198;28;20038;-62
2022/01/19 12:37:04;;;;;;;26.63;16.85;;;;;;;6.41;86.65;101355.03;8327682;28;20041;-63
2022/01/19 12:41:07;;;;;;;28.70;16.48;;;;;;;6.40;86.36;101349.75;8349078;28;20059;-62
2022/01/19 12:45:20;;;;;;;30.10;16.73;;;;;;;6.35;86.66;101344.66;8348226;28;20044;-62
2022/01/19 12:49:29;;;;;;;31.73;17.50;;;;;;;6.36;86.12;101346.38;8329002;28;20042;-63
2022/01/19 12:53:30;;;;;;;34.90;18.33;;;;;;;6.37;86.52;101341.91;8316273;28;20037;-63
2022/01/19 12:57:30;;;;;;;32.22;19.10;;;;;;;6.33;87.76;101338.53;8315037;28;20105;-63
2022/01/19 13:01:31;;;;;;;34.63;18.70;;;;;;;6.33;87.75;101340.34;8315675;28;20026;-63
2022/01/19 13:05:31;;;;;;;36.03;20.05;;;;;;;6.31;87.98;101336.91;8316279;28;20038;-63
2022/01/19 13:09:37;;;;;;;32.38;18.75;;;;;;;6.33;87.84;101341.22;8315705;28;20250;-63
2022/01/19 13:13:49;;;;;;;35.67;18.88;;;;;;;6.31;88.86;101321.63;8347645;28;20033;-62
2022/01/19 13:17:52;;;;;;;35.03;19.15;;;;;;;6.34;88.73;101326.81;8348626;28;20523;-63
2022/01/19 13:22:08;;;;;;;32.75;18.98;;;;;;;6.33;87.52;101319.72;8334350;28;20052;-63
2022/01/19 13:26:10;;;;;;;35.22;18.60;;;;;;;6.32;88.46;101314.44;8327051;28;20052;-63
2022/01/19 13:30:12;;;;;;;43.95;19.92;;;;;;;6.36;88.37;101306.09;8325031;28;20458;-63
2022/01/19 13:34:12;;;;;;;31.83;18.75;;;;;;;6.36;88.11;101298.06;8324289;28;20033;-62
2022/01/19 13:38:13;;;;;;;34.10;19.25;;;;;;;6.41;88.72;101305.81;8296808;28;20041;-62
2022/01/19 13:42:14;;;;;;;33.72;19.23;;;;;;;6.35;89.13;101301.72;8291927;28;20057;-62
2022/01/19 13:46:24;;;;;;;36.70;20.00;;;;;;;6.31;89.02;101294.78;8291318;28;20044;-62
2022/01/19 13:50:25;;;;;;;35.55;18.50;;;;;;;6.32;89.63;101280.41;8288970;28;20042;-63
2022/01/19 13:54:25;;;;;;;33.58;18.80;;;;;;;6.28;90.91;101278.84;8279446;28;20448;-63
2022/01/19 13:58:34;;;;;;;36.35;18.65;;;;;;;6.27;91.83;101270.91;8286153;28;20030;-63
2022/01/19 14:02:34;;;;;;;39.95;19.90;;;;;;;6.24;92.56;101266.59;8287955;28;20583;-63
2022/01/19 14:06:40;;;;;;;30.63;16.83;;;;;;;6.22;93.57;101268.50;8284490;28;20516;-63
2022/01/19 14:10:45;;;;;;;35.15;17.65;;;;;;;6.12;95.86;101255.72;8283518;28;20056;-63
2022/01/19 14:19:09;;;;;;;37.20;18.35;;;;;;;6.09;96.67;101240.69;8381847;27;20399;-62
2022/01/19 14:23:15;;;;;;;37.65;18.17;;;;;;;6.06;97.31;101240.03;8337991;28;20049;-63
2022/01/19 14:27:37;;;;;;;33.60;17.70;;;;;;;6.05;97.59;101228.41;8361151;28;20069;-63
2022/01/19 14:31:56;;;;;;;32.05;17.40;;;;;;;6.05;98.13;101228.41;8353484;28;20040;-63
2022/01/19 14:35:58;;;;;;;33.17;16.95;;;;;;;6.01;97.89;101227.75;8364552;28;20120;-63
2022/01/19 14:40:08;;;;;;;34.10;17.65;;;;;;;6.02;98.50;101212.50;8375506;28;20029;-63
2022/01/19 14:44:22;;;;;;;37.05;18.45;;;;;;;6.06;98.84;101207.81;8378065;28;20029;-63
2022/01/19 14:48:25;;;;;;;38.15;16.95;;;;;;;6.03;99.06;101203.50;8380409;28;20497;-63
2022/01/19 14:52:25;;;;;;;34.42;17.02;;;;;;;6.01;99.12;101200.06;8379434;28;20029;-63
2022/01/19 14:56:28;;;;;;;32.60;17.38;;;;;;;6.08;98.72;101196.03;8371951;28;20570;-63
2022/01/19 15:00:30;;;;;;;35.10;16.58;;;;;;;6.10;98.07;101188.72;8378192;28;20300;-63
2022/01/19 15:04:30;;;;;;;33.92;16.02;;;;;;;6.12;97.21;101194.88;8380567;28;20471;-62
2022/01/19 15:08:31;;;;;;;28.55;16.30;;;;;;;6.13;97.55;101193.91;8377947;28;20055;-63
2022/01/19 15:12:31;;;;;;;32.97;16.02;;;;;;;6.15;97.36;101181.25;8379134;28;20068;-62
2022/01/19 15:16:32;;;;;;;31.92;16.80;;;;;;;6.17;97.04;101179.34;8342995;28;20041;-63
2022/01/19 15:20:39;;;;;;;33.20;16.05;;;;;;;6.18;97.26;101178.38;8341665;28;20104;-63
2022/01/19 15:24:39;;;;;;;36.08;18.33;;;;;;;6.19;97.27;101182.78;8323760;28;20048;-62
2022/01/19 15:28:39;;;;;;;35.40;18.00;;;;;;;6.15;99.02;101181.25;8324967;28;20041;-63
2022/01/19 15:32:40;;;;;;;48.13;23.20;;;;;;;6.12;100.00;101173.41;8317086;28;20030;-63
2022/01/19 15:36:40;;;;;;;40.47;20.55;;;;;;;6.03;100.00;101174.84;8322778;28;20702;-62
2022/01/19 15:40:42;;;;;;;46.90;21.65;;;;;;;5.99;100.00;101169.75;8317112;28;20043;-63
2022/01/19 15:44:43;;;;;;;46.72;22.73;;;;;;;5.97;100.00;101150.19;8311196;28;20046;-63
2022/01/19 15:48:44;;;;;;;46.15;23.42;;;;;;;5.98;100.00;101158.16;8305265;28;20033;-62
2022/01/19 15:52:45;;;;;;;41.70;21.23;;;;;;;5.97;100.00;101147.50;8314809;28;20045;-63
2022/01/19 15:56:47;;;;;;;44.90;20.85;;;;;;;5.97;100.00;101151.06;8338411;28;20060;-62
2022/01/19 16:00:50;;;;;;;49.28;23.05;;;;;;;5.99;100.00;101148.28;8317247;28;20064;-63
2022/01/19 16:04:50;;;;;;;45.83;22.20;;;;;;;6.02;100.00;101153.47;8321615;28;20565;-63
2022/01/19 16:08:51;;;;;;;44.50;21.98;;;;;;;6.02;100.00;101142.72;8322583;28;20406;-63
2022/01/19 16:12:51;;;;;;;48.30;21.65;;;;;;;6.03;100.00;101147.13;8315439;28;20391;-63
2022/01/19 16:16:52;;;;;;;45.80;21.08;;;;;;;6.07;100.00;101154.03;8317914;28;20401;-63
2022/01/19 16:20:53;;;;;;;49.83;21.83;;;;;;;6.05;100.00;101164.00;8312644;28;20536;-63
2022/01/19 16:26:10;;;;;;;46.75;20.92;;;;;;;6.07;100.00;101162.06;8317655;28;20556;-63
2022/01/19 16:29:14;;;;;;;43.65;20.65;;;;;;;6.04;100.00;101173.03;8313122;28;20521;-63
2022/01/19 16:33:15;;;;;;;50.42;21.25;;;;;;;6.03;100.00;101159.72;8315926;28;20069;-63
2022/01/19 16:37:15;;;;;;;45.45;21.67;;;;;;;6.04;100.00;101164.97;8314394;28;20046;-63
2022/01/19 16:41:21;;;;;;;46.72;21.00;;;;;;;6.04;100.00;101164.97;8332415;28;20045;-63
2022/01/19 16:45:21;;;;;;;49.40;23.15;;;;;;;6.08;100.00;101164.66;8323289;28;20040;-63
2022/01/19 16:49:28;;;;;;;44.30;21.85;;;;;;;6.07;100.00;101151.34;8324862;28;20059;-62
2022/01/19 16:53:32;;;;;;;50.58;22.90;;;;;;;6.13;100.00;101156.31;8312040;28;20056;-62
2022/01/19 16:57:32;;;;;;;51.83;22.10;;;;;;;6.14;100.00;101166.13;8304101;28;20528;-63
2022/01/19 17:01:34;;;;;;;43.63;20.48;;;;;;;6.20;100.00;101168.41;8302224;28;20517;-63
2022/01/19 17:05:35;;;;;;;43.45;19.58;;;;;;;6.20;100.00;101165.72;8315102;28;20053;-63
2022/01/19 17:09:35;;;;;;;53.50;23.95;;;;;;;6.24;100.00;101163.69;8314748;28;20528;-63
2022/01/19 17:13:41;;;;;;;39.05;18.75;;;;;;;6.26;100.00;101157.28;8312910;28;20037;-63
2022/01/19 17:17:45;;;;;;;41.10;19.67;;;;;;;6.24;100.00;101164.56;8314830;28;20485;-63
2022/01/19 17:21:45;;;;;;;36.72;19.25;;;;;;;6.19;100.00;101160.47;8314517;28;20056;-63
2022/01/19 17:25:45;;;;;;;34.33;17.27;;;;;;;6.26;100.00;101167.16;8304875;28;20045;-63
2022/01/19 17:29:46;;;;;;;34.47;15.38;;;;;;;6.25;100.00;101160.91;8300217;28;20045;-63
2022/01/19 17:33:46;;;;;;;31.65;15.55;;;;;;;6.29;100.00;101159.78;8307383;28;20044;-64
2022/01/19 17:37:47;;;;;;;29.55;14.95;;;;;;;6.29;100.00;101159.78;8323379;28;20044;-64
2022/01/19 17:41:48;;;;;;;33.40;15.00;;;;;;;6.26;100.00;101162.66;8317733;28;20079;-64
2022/01/19 17:50:25;;;;;;;26.33;13.98;;;;;;;6.30;100.00;101160.63;8368990;28;20516;-63
2022/01/19 17:54:25;;;;;;;24.92;13.20;;;;;;;6.32;100.00;101156.91;8349522;28;20052;-63
2022/01/19 17:58:26;;;;;;;23.38;13.15;;;;;;;6.32;100.00;101162.25;8352842;28;20033;-63
2022/01/19 18:02:26;;;;;;;22.35;12.10;;;;;;;6.35;100.00;101159.38;8351171;28;20049;-63
2022/01/19 18:06:28;;;;;;;24.05;12.68;;;;;;;6.34;100.00;101154.13;8344249;28;20110;-62
2022/01/19 18:10:29;;;;;;;21.70;11.20;;;;;;;6.36;100.00;101153.03;8348285;28;20550;-62
2022/01/19 18:14:30;;;;;;;25.88;11.95;;;;;;;6.34;100.00;101146.91;8346406;28;20144;-63
2022/01/19 18:18:30;;;;;;;20.42;11.40;;;;;;;6.33;100.00;101142.50;8333165;28;20555;-62
2022/01/19 18:22:31;;;;;;;23.60;12.18;;;;;;;6.35;100.00;101145.09;8334862;28;20041;-63
2022/01/19 18:26:32;;;;;;;28.15;13.30;;;;;;;6.33;100.00;101153.25;8314157;28;20053;-63
2022/01/19 18:30:32;;;;;;;31.58;14.02;;;;;;;6.34;100.00;101149.59;8330988;28;20095;-63
2022/01/19 18:34:32;;;;;;;28.52;14.90;;;;;;;6.32;100.00;101146.16;8328772;28;20045;-63
2022/01/19 18:38:33;;;;;;;31.75;15.73;;;;;;;6.34;100.00;101154.94;8338359;28;20045;-63
2022/01/19 18:42:34;;;;;;;29.50;15.18;;;;;;;6.37;100.00;101167.34;8311996;28;20099;-63
2022/01/19 18:46:34;;;;;;;33.63;15.90;;;;;;;6.40;100.00;101159.09;8336405;28;20520;-63
2022/01/19 18:50:35;;;;;;;31.95;16.45;;;;;;;6.46;100.00;101158.69;8344837;28;20033;-62
2022/01/19 18:54:37;;;;;;;32.17;16.48;;;;;;;6.48;100.00;101152.25;8337650;28;20398;-63
2022/01/19 18:58:38;;;;;;;34.65;18.55;;;;;;;6.53;100.00;101150.16;8339064;28;20390;-63
2022/01/19 19:02:39;;;;;;;35.50;17.27;;;;;;;6.61;100.00;101157.69;8311101;28;20049;-62
2022/01/19 19:06:39;;;;;;;38.08;18.95;;;;;;;6.61;100.00;101153.19;8296674;28;20118;-62
2022/01/19 19:10:52;;;;;;;33.78;19.23;;;;;;;6.60;100.00;101150.59;8318339;28;20041;-62
2022/01/19 19:14:54;;;;;;;38.03;20.25;;;;;;;6.59;100.00;101141.66;8309867;28;20033;-62
2022/01/19 19:18:54;;;;;;;40.85;20.25;;;;;;;6.61;100.00;101149.63;8304272;28;20041;-62
2022/01/19 19:22:56;;;;;;;43.25;21.05;;;;;;;6.61;100.00;101146.94;8306001;28;20041;-63
2022/01/19 19:26:56;;;;;;;47.40;22.88;;;;;;;6.65;100.00;101160.06;8295229;28;20582;-63
2022/01/19 19:30:57;;;;;;;47.05;22.50;;;;;;;6.61;100.00;101163.91;8285177;28;20444;-63
2022/01/19 19:34:57;;;;;;;50.38;24.88;;;;;;;6.65;100.00;101168.13;8302341;28;20034;-63
2022/01/19 19:38:57;;;;;;;47.00;25.40;;;;;;;6.64;100.00;101174.47;8300221;28;20521;-64
2022/01/19 19:42:58;;;;;;;51.35;25.00;;;;;;;6.75;100.00;101179.16;8280579;28;20037;-63
2022/01/19 19:47:00;;;;;;;50.90;26.73;;;;;;;6.81;100.00;101185.00;8280769;28;20410;-63
2022/01/19 19:51:00;;;;;;;53.92;25.77;;;;;;;6.89;100.00;101185.34;8326675;28;20033;-63